createdAt,value
2018-12-02T00:01:44.715Z,67.68
2018-12-02T00:04:13.807Z,68.90
2018-12-02T00:06:42.917Z,69.97
2018-12-02T00:09:11.999Z,70.12
2018-12-02T00:11:41.085Z,70.53
2018-12-02T00:14:10.203Z,70.90
2018-12-02T00:16:39.278Z,70.75
2018-12-02T00:19:08.360Z,71.61
2018-12-02T00:21:37.460Z,71.63
2018-12-02T00:24:06.541Z,71.62
2018-12-02T00:26:35.622Z,71.11
2018-12-02T00:29:04.806Z,71.11
2018-12-02T00:31:33.890Z,71.24
2018-12-02T00:34:02.970Z,71.73
2018-12-02T00:36:32.141Z,70.94
2018-12-02T00:39:01.233Z,70.83
2018-12-02T00:41:41.886Z,70.72
2018-12-02T00:44:10.967Z,71.51
2018-12-02T00:46:40.046Z,70.96
2018-12-02T00:49:09.172Z,71.09
2018-12-02T00:51:38.256Z,70.67
2018-12-02T00:54:07.318Z,70.99
2018-12-02T00:56:36.466Z,71.52
2018-12-02T00:59:05.537Z,71.47
2018-12-02T01:01:34.602Z,70.50
2018-12-02T01:04:03.690Z,70.45
2018-12-02T01:06:32.756Z,69.91
2018-12-02T01:09:01.834Z,69.96
2018-12-02T01:11:30.926Z,69.90
2018-12-02T01:13:59.981Z,69.85
2018-12-02T01:16:29.047Z,70.39
2018-12-02T01:18:58.169Z,70.45
2018-12-02T01:21:27.232Z,70.79
2018-12-02T01:23:56.292Z,71.54
2018-12-02T01:26:25.390Z,71.51
2018-12-02T01:28:54.457Z,70.81
2018-12-02T01:31:23.522Z,70.33
2018-12-02T01:33:52.642Z,70.17
2018-12-02T01:36:21.751Z,70.08
2018-12-02T01:38:50.795Z,69.89
2018-12-02T01:41:20.002Z,69.88
2018-12-02T01:43:49.075Z,69.88
2018-12-02T01:46:18.154Z,69.85
2018-12-02T01:48:47.239Z,69.85
2018-12-02T01:51:16.299Z,69.99
2018-12-02T01:53:45.374Z,70.01
2018-12-02T01:56:14.465Z,70.42
2018-12-02T01:58:43.525Z,70.47
2018-12-02T02:01:12.634Z,70.84
2018-12-02T02:03:41.760Z,70.79
2018-12-02T02:06:10.819Z,70.78
2018-12-02T02:08:39.886Z,70.65
2018-12-02T02:11:08.972Z,70.78
2018-12-02T02:13:38.034Z,70.77
2018-12-02T02:16:07.097Z,70.66
2018-12-02T02:18:36.193Z,70.57
2018-12-02T02:21:05.250Z,70.53
2018-12-02T02:23:34.324Z,70.86
2018-12-02T02:26:03.473Z,71.17
2018-12-02T02:28:32.536Z,71.48
2018-12-02T02:34:20.708Z,70.81
2018-12-02T02:36:50.009Z,71.03
2018-12-02T02:39:19.079Z,70.87
2018-12-02T02:41:48.135Z,70.55
2018-12-02T02:44:17.647Z,70.83
2018-12-02T02:46:46.699Z,70.60
2018-12-02T02:49:15.774Z,71.36
2018-12-02T02:51:44.958Z,72.16
2018-12-02T02:54:14.020Z,72.08
2018-12-02T02:56:43.088Z,72.50
2018-12-02T02:59:12.187Z,71.49
2018-12-02T03:01:41.240Z,72.39
2018-12-02T03:04:10.326Z,72.67
2018-12-02T03:06:39.441Z,71.81
2018-12-02T03:09:08.511Z,72.53
2018-12-02T03:11:37.568Z,73.43
2018-12-02T03:14:06.663Z,73.54
2018-12-02T03:16:35.733Z,73.79
2018-12-02T03:19:04.792Z,73.66
2018-12-02T03:21:33.895Z,73.61
2018-12-02T03:24:02.959Z,73.77
2018-12-02T03:26:32.037Z,73.40
2018-12-02T03:29:01.141Z,73.07
2018-12-02T03:31:30.255Z,72.38
2018-12-02T03:33:59.287Z,71.84
2018-12-02T03:36:28.376Z,71.53
2018-12-02T03:38:57.444Z,71.33
2018-12-02T03:41:26.509Z,71.32
2018-12-02T03:43:55.602Z,71.87
2018-12-02T03:46:24.656Z,71.53
2018-12-02T03:48:53.723Z,73.05
2018-12-02T03:51:22.873Z,73.32
2018-12-02T03:53:51.932Z,73.52
2018-12-02T03:56:20.997Z,73.00
2018-12-02T03:58:50.100Z,73.27
2018-12-02T04:01:19.165Z,72.64
2018-12-02T04:03:48.230Z,72.06
2018-12-02T04:06:17.323Z,72.46
2018-12-02T04:08:46.393Z,72.00
2018-12-02T04:11:15.478Z,71.86
2018-12-02T04:13:44.625Z,71.71
2018-12-02T04:16:13.696Z,71.75
2018-12-02T04:18:42.744Z,71.56
2018-12-02T04:21:11.850Z,71.46
2018-12-02T04:23:40.919Z,71.44
2018-12-02T04:26:09.994Z,71.61
2018-12-02T04:28:39.089Z,71.62
2018-12-02T04:31:08.146Z,71.45
2018-12-02T04:33:37.215Z,71.35
2018-12-02T04:36:06.407Z,71.27
2018-12-02T04:38:35.472Z,71.23
2018-12-02T04:41:04.550Z,71.22
2018-12-02T04:43:33.643Z,71.20
2018-12-02T04:46:02.707Z,71.16
2018-12-02T04:48:31.755Z,71.25
2018-12-02T04:51:00.854Z,71.21
2018-12-02T04:53:29.909Z,71.11
2018-12-02T04:55:58.965Z,71.05
2018-12-02T04:58:28.075Z,70.99
2018-12-02T05:00:57.149Z,70.96
2018-12-02T05:03:26.215Z,70.97
2018-12-02T05:05:55.306Z,71.07
2018-12-02T05:08:24.378Z,70.99
2018-12-02T05:10:53.440Z,71.05
2018-12-02T05:13:22.526Z,71.15
2018-12-02T05:15:51.597Z,71.16
2018-12-02T05:18:20.659Z,71.07
2018-12-02T05:20:49.764Z,71.06
2018-12-02T05:23:18.833Z,71.00
2018-12-02T05:25:47.886Z,71.00
2018-12-02T05:28:16.977Z,70.96
2018-12-02T05:30:46.055Z,70.95
2018-12-02T05:33:15.124Z,71.11
2018-12-02T05:35:44.225Z,71.16
2018-12-02T05:38:13.300Z,71.58
2018-12-02T05:40:42.365Z,71.41
2018-12-02T05:43:11.592Z,71.29
2018-12-02T05:45:40.645Z,71.57
2018-12-02T05:48:09.740Z,71.41
2018-12-02T05:51:04.413Z,71.27
2018-12-02T05:53:33.463Z,71.18
2018-12-02T05:56:02.634Z,71.23
2018-12-02T05:58:31.682Z,71.24
2018-12-02T06:01:00.732Z,71.34
2018-12-02T06:03:29.830Z,71.41
2018-12-02T06:05:58.890Z,71.38
2018-12-02T06:08:27.952Z,71.38
2018-12-02T06:10:57.060Z,71.34
2018-12-02T06:13:26.128Z,71.48
2018-12-02T06:15:55.206Z,71.41
2018-12-02T06:18:24.289Z,71.37
2018-12-02T06:20:54.645Z,71.48
2018-12-02T06:23:23.439Z,71.60
2018-12-02T06:25:52.594Z,72.08
2018-12-02T06:28:21.663Z,72.12
2018-12-02T06:30:50.738Z,72.36
2018-12-02T06:33:19.833Z,73.26
2018-12-02T06:35:48.896Z,72.57
2018-12-02T06:38:17.982Z,72.27
2018-12-02T06:40:47.084Z,72.98
2018-12-02T06:43:16.169Z,74.04
2018-12-02T06:45:45.230Z,74.74
2018-12-02T06:48:14.347Z,73.66
2018-12-02T06:50:46.609Z,73.03
2018-12-02T06:53:15.729Z,74.19
2018-12-02T06:55:44.874Z,74.08
2018-12-02T06:58:14.901Z,73.34
2018-12-02T07:00:45.143Z,73.78
2018-12-02T07:03:15.193Z,73.37
2018-12-02T07:05:44.329Z,73.00
2018-12-02T07:08:13.474Z,73.03
2018-12-02T07:10:47.673Z,73.58
2018-12-02T07:13:16.768Z,73.94
2018-12-02T07:15:45.845Z,73.63
2018-12-02T07:18:14.994Z,74.97
2018-12-02T07:20:44.171Z,75.10
2018-12-02T07:23:13.327Z,75.53
2018-12-02T07:25:43.409Z,76.17
2018-12-02T07:28:12.536Z,77.69
2018-12-02T07:30:41.602Z,77.23
2018-12-02T07:33:10.678Z,76.55
2018-12-02T07:35:39.777Z,75.21
2018-12-02T07:38:08.838Z,74.68
2018-12-02T07:40:37.906Z,74.78
2018-12-02T07:43:07.000Z,74.36
2018-12-02T07:45:36.077Z,73.95
2018-12-02T07:48:05.159Z,74.21
2018-12-02T07:50:34.266Z,74.54
2018-12-02T07:53:03.343Z,74.26
2018-12-02T07:55:32.461Z,75.33
2018-12-02T07:58:01.785Z,75.16
2018-12-02T08:00:30.853Z,74.65
2018-12-02T08:02:59.935Z,75.12
2018-12-02T08:05:29.028Z,74.45
2018-12-02T08:07:58.089Z,74.99
2018-12-02T08:10:27.140Z,74.62
2018-12-02T08:12:56.458Z,75.04
2018-12-02T08:15:25.517Z,74.63
2018-12-02T08:17:54.585Z,75.02
2018-12-02T08:20:23.657Z,74.59
2018-12-02T08:22:52.717Z,74.46
2018-12-02T08:25:21.773Z,74.09
2018-12-02T08:27:50.862Z,73.77
2018-12-02T08:30:19.928Z,74.16
2018-12-02T08:32:48.985Z,74.33
2018-12-02T08:35:18.104Z,74.70
2018-12-02T08:37:47.166Z,74.39
2018-12-02T08:40:16.209Z,73.69
2018-12-02T08:42:45.296Z,73.68
2018-12-02T08:45:14.362Z,73.30
2018-12-02T08:47:43.428Z,73.74
2018-12-02T08:50:12.505Z,73.64
2018-12-02T08:52:41.560Z,73.45
2018-12-02T08:55:10.621Z,73.61
2018-12-02T08:57:39.819Z,73.55
2018-12-02T09:00:08.879Z,73.10
2018-12-02T09:02:37.933Z,72.55
2018-12-02T09:05:07.030Z,72.21
2018-12-02T09:07:36.085Z,72.01
2018-12-02T09:10:05.155Z,71.62
2018-12-02T09:12:46.942Z,71.79
2018-12-02T09:15:16.004Z,71.43
2018-12-02T09:17:45.079Z,71.08
2018-12-02T09:20:14.176Z,70.42
2018-12-02T09:22:43.240Z,69.87
2018-12-02T09:25:12.304Z,69.47
2018-12-02T09:27:41.387Z,69.16
2018-12-02T09:30:10.502Z,68.96
2018-12-02T09:32:39.579Z,68.75
2018-12-02T09:35:08.680Z,68.56
2018-12-02T09:37:37.758Z,68.44
2018-12-02T09:40:06.820Z,68.38
2018-12-02T09:42:35.908Z,68.35
2018-12-02T09:45:04.964Z,68.44
2018-12-02T09:47:34.012Z,68.44
2018-12-02T09:50:03.089Z,68.47
2018-12-02T09:52:32.151Z,68.64
2018-12-02T09:55:01.211Z,68.68
2018-12-02T09:57:30.318Z,68.92
2018-12-02T09:59:59.377Z,68.93
2018-12-02T10:02:28.435Z,69.03
2018-12-02T10:04:57.529Z,69.05
2018-12-02T10:07:26.594Z,69.14
2018-12-02T10:09:56.169Z,69.36
2018-12-02T10:12:24.732Z,69.61
2018-12-02T10:14:53.790Z,69.94
2018-12-02T10:17:22.862Z,70.11
2018-12-02T10:19:52.079Z,70.13
2018-12-02T10:22:21.141Z,70.10
2018-12-02T10:24:50.189Z,69.97
2018-12-02T10:27:20.282Z,70.06
2018-12-02T10:29:48.349Z,69.80
2018-12-02T10:32:17.417Z,69.90
2018-12-02T10:34:46.500Z,69.79
2018-12-02T10:37:15.580Z,69.52
2018-12-02T10:39:44.634Z,69.55
2018-12-02T10:42:13.736Z,69.85
2018-12-02T10:44:42.777Z,69.94
2018-12-02T10:47:11.835Z,70.19
2018-12-02T10:49:40.914Z,70.60
2018-12-02T10:52:09.963Z,70.22
2018-12-02T10:54:39.015Z,70.18
2018-12-02T10:57:08.117Z,70.06
2018-12-02T10:59:37.185Z,70.54
2018-12-02T11:02:08.209Z,70.81
2018-12-02T11:04:37.315Z,70.81
2018-12-02T11:07:06.372Z,70.64
2018-12-02T11:09:35.423Z,70.66
2018-12-02T11:12:04.504Z,70.48
2018-12-02T11:14:33.574Z,70.51
2018-12-02T11:17:02.650Z,70.98
2018-12-02T11:19:31.736Z,70.99
2018-12-02T11:22:00.797Z,70.77
2018-12-02T11:24:29.854Z,70.58
2018-12-02T11:26:58.951Z,70.42
2018-12-02T11:29:28.016Z,70.42
2018-12-02T11:32:16.485Z,70.28
2018-12-02T11:34:45.539Z,69.95
2018-12-02T11:37:14.610Z,69.96
2018-12-02T11:39:43.713Z,69.82
2018-12-02T11:42:12.773Z,70.03
2018-12-02T11:44:41.829Z,69.86
2018-12-02T11:47:10.980Z,69.62
2018-12-02T11:49:40.025Z,69.85
2018-12-02T11:52:09.083Z,69.79
2018-12-02T11:54:38.170Z,69.75
2018-12-02T11:57:07.236Z,69.48
2018-12-02T11:59:36.314Z,69.11
2018-12-02T12:02:07.631Z,68.80
2018-12-02T12:04:34.486Z,68.74
2018-12-02T12:07:03.566Z,68.61
2018-12-02T12:09:32.677Z,68.30
2018-12-02T12:12:18.951Z,67.99
2018-12-02T12:14:48.038Z,67.87
2018-12-02T12:17:17.103Z,67.60
2018-12-02T12:19:46.164Z,67.41
2018-12-02T12:22:15.233Z,67.19
2018-12-02T12:24:44.306Z,66.85
2018-12-02T12:27:13.364Z,66.69
2018-12-02T12:29:42.471Z,66.52
2018-12-02T12:32:11.537Z,66.28
2018-12-02T12:34:40.598Z,66.13
2018-12-02T12:37:09.680Z,65.97
2018-12-02T12:39:38.724Z,65.76
2018-12-02T12:42:21.697Z,65.60
2018-12-02T12:44:50.761Z,65.49
2018-12-02T12:47:19.817Z,65.40
2018-12-02T12:49:49.013Z,65.39
2018-12-02T12:52:18.075Z,65.22
2018-12-02T12:54:47.181Z,65.11
2018-12-02T12:57:16.267Z,65.13
2018-12-02T12:59:45.325Z,65.18
2018-12-02T13:02:14.379Z,65.16
2018-12-02T13:04:43.477Z,65.11
2018-12-02T13:07:12.538Z,65.13
2018-12-02T13:09:41.604Z,65.15
2018-12-02T13:12:10.716Z,65.41
2018-12-02T13:14:39.775Z,65.42
2018-12-02T13:17:08.864Z,65.42
2018-12-02T13:19:37.950Z,65.31
2018-12-02T13:22:07.011Z,65.28
2018-12-02T13:24:36.077Z,65.37
2018-12-02T13:27:05.160Z,65.46
2018-12-02T13:29:34.218Z,65.51
2018-12-02T13:32:03.359Z,65.59
2018-12-02T13:34:32.497Z,65.88
2018-12-02T13:37:01.561Z,65.92
2018-12-02T13:39:30.612Z,66.04
2018-12-02T13:41:59.706Z,66.03
2018-12-02T13:44:28.770Z,66.03
2018-12-02T13:46:57.849Z,66.29
2018-12-02T13:49:26.941Z,66.53
2018-12-02T13:51:56.004Z,66.54
2018-12-02T13:54:25.143Z,66.50
2018-12-02T13:56:54.487Z,66.60
2018-12-02T13:59:23.553Z,66.75
2018-12-02T14:01:52.615Z,66.85
2018-12-02T14:04:21.726Z,66.84
2018-12-02T14:06:50.801Z,66.92
2018-12-02T14:09:19.881Z,66.87
2018-12-02T14:11:48.975Z,66.96
2018-12-02T14:14:18.060Z,67.27
2018-12-02T14:16:47.123Z,67.22
2018-12-02T14:19:16.392Z,67.42
2018-12-02T14:21:45.460Z,67.46
2018-12-02T14:24:14.514Z,67.95
2018-12-02T14:26:43.601Z,68.12
2018-12-02T14:29:12.959Z,67.99
2018-12-02T14:31:42.032Z,68.05
2018-12-02T14:34:11.123Z,68.30
2018-12-02T14:36:40.173Z,68.66
2018-12-02T14:39:09.263Z,68.54
2018-12-02T14:41:38.476Z,68.44
2018-12-02T14:44:07.552Z,69.01
2018-12-02T14:46:36.686Z,68.90
2018-12-02T14:49:05.800Z,68.94
2018-12-02T14:51:49.026Z,68.69
2018-12-02T14:54:18.121Z,69.21
2018-12-02T14:56:47.195Z,68.91
2018-12-02T14:59:16.258Z,68.81
2018-12-02T15:01:47.325Z,68.81
2018-12-02T15:04:16.411Z,69.05
2018-12-02T15:06:45.481Z,69.08
2018-12-02T15:09:14.560Z,69.04
2018-12-02T15:11:43.621Z,68.94
2018-12-02T15:14:12.683Z,68.60
2018-12-02T15:16:41.767Z,68.66
2018-12-02T15:19:10.843Z,68.70
2018-12-02T15:21:40.885Z,68.86
2018-12-02T15:24:10.089Z,68.90
2018-12-02T15:26:39.146Z,68.74
2018-12-02T15:29:08.214Z,68.92
2018-12-02T15:31:37.308Z,68.96
2018-12-02T15:34:06.367Z,68.86
2018-12-02T15:36:35.430Z,68.85
2018-12-02T15:39:04.502Z,68.63
2018-12-02T15:41:33.552Z,68.70
2018-12-02T15:44:02.623Z,68.84
2018-12-02T15:46:31.829Z,68.81
2018-12-02T15:49:00.898Z,68.74
2018-12-02T15:51:29.993Z,68.32
2018-12-02T15:53:59.065Z,68.35
2018-12-02T15:56:28.128Z,68.19
2018-12-02T15:58:57.195Z,68.06
2018-12-02T16:01:26.291Z,68.07
2018-12-02T16:03:55.351Z,68.08
2018-12-02T16:06:24.411Z,67.96
2018-12-02T16:08:53.534Z,67.73
2018-12-02T16:14:18.698Z,67.64
2018-12-02T16:16:47.760Z,67.67
2018-12-02T16:19:16.808Z,67.66
2018-12-02T16:21:45.894Z,67.62
2018-12-02T16:24:14.952Z,67.82
2018-12-02T16:26:44.018Z,67.65
2018-12-02T16:29:13.134Z,67.48
2018-12-02T16:31:42.205Z,67.63
2018-12-02T16:34:11.262Z,67.48
2018-12-02T16:36:40.363Z,67.35
2018-12-02T16:39:09.418Z,67.45
2018-12-02T16:41:38.486Z,67.30
2018-12-02T16:44:07.583Z,67.59
2018-12-02T16:46:36.626Z,67.42
2018-12-02T16:49:05.704Z,67.65
2018-12-02T16:51:34.804Z,67.46
2018-12-02T16:54:03.870Z,67.50
2018-12-02T16:56:32.936Z,67.43
2018-12-02T16:59:02.013Z,67.51
2018-12-02T17:01:31.109Z,67.25
2018-12-02T17:04:00.165Z,67.53
2018-12-02T17:06:29.245Z,67.53
2018-12-02T17:08:58.309Z,67.95
2018-12-02T17:11:27.372Z,68.24
2018-12-02T17:13:56.494Z,68.24
2018-12-02T17:16:25.562Z,68.15
2018-12-02T17:18:54.622Z,68.04
2018-12-02T17:21:23.698Z,68.21
2018-12-02T17:23:53.628Z,68.16
2018-12-02T17:26:22.696Z,68.26
2018-12-02T17:28:51.810Z,68.13
2018-12-02T17:31:20.865Z,67.97
2018-12-02T17:33:49.923Z,67.97
2018-12-02T17:36:19.042Z,67.95
2018-12-02T17:38:48.093Z,68.14
2018-12-02T17:41:17.149Z,68.13
2018-12-02T17:43:46.237Z,67.91
2018-12-02T17:46:15.308Z,67.92
2018-12-02T17:48:44.383Z,68.16
2018-12-02T17:51:14.482Z,68.18
2018-12-02T17:53:43.552Z,67.84
2018-12-02T17:56:12.613Z,68.31
2018-12-02T17:58:41.734Z,68.17
2018-12-02T18:01:10.800Z,68.18
2018-12-02T18:03:39.864Z,68.18
2018-12-02T18:06:08.942Z,67.94
2018-12-02T18:08:38.003Z,67.97
2018-12-02T18:11:07.058Z,68.04
2018-12-02T18:13:36.793Z,67.92
2018-12-02T18:16:05.863Z,68.03
2018-12-02T18:18:34.910Z,68.02
2018-12-02T18:21:04.113Z,68.02
2018-12-02T18:23:33.177Z,67.99
2018-12-02T18:26:02.271Z,67.97
2018-12-02T18:28:31.357Z,67.89
2018-12-02T18:31:00.420Z,68.10
2018-12-02T18:33:29.488Z,67.98
2018-12-02T18:35:58.571Z,68.00
2018-12-02T18:38:27.642Z,68.07
2018-12-02T18:41:02.527Z,68.04
2018-12-02T18:43:31.589Z,67.90
2018-12-02T18:46:00.647Z,68.16
2018-12-02T18:48:29.727Z,68.20
2018-12-02T18:50:58.796Z,68.13
2018-12-02T18:53:27.846Z,68.21
2018-12-02T18:55:56.933Z,68.12
2018-12-02T18:58:25.989Z,68.17
2018-12-02T19:01:14.856Z,68.23
2018-12-02T19:03:43.917Z,68.30
2018-12-02T19:06:12.968Z,68.31
2018-12-02T19:08:42.055Z,68.27
2018-12-02T19:11:11.119Z,68.21
2018-12-02T19:13:43.514Z,68.00
2018-12-02T19:16:09.293Z,68.03
2018-12-02T19:18:38.353Z,68.06
2018-12-02T19:21:07.406Z,68.19
2018-12-02T19:23:36.491Z,68.19
2018-12-02T19:26:05.583Z,68.33
2018-12-02T19:28:34.648Z,68.63
2018-12-02T19:31:03.770Z,68.80
2018-12-02T19:33:32.949Z,68.92
2018-12-02T19:36:02.024Z,69.03
2018-12-02T19:38:31.127Z,69.07
2018-12-02T19:41:09.868Z,69.13
2018-12-02T19:43:38.992Z,69.32
2018-12-02T19:46:08.084Z,69.44
2018-12-02T19:48:37.140Z,69.41
2018-12-02T19:51:06.235Z,69.57
2018-12-02T19:53:35.321Z,69.60
2018-12-02T19:56:04.399Z,69.79
2018-12-02T19:58:33.623Z,69.56
2018-12-02T20:01:04.708Z,69.51
2018-12-02T20:03:33.802Z,69.85
2018-12-02T20:06:02.872Z,69.76
2018-12-02T20:08:31.931Z,69.53
2018-12-02T20:11:00.981Z,69.49
2018-12-02T20:13:30.065Z,69.34
2018-12-02T20:15:59.121Z,69.72
2018-12-02T20:18:32.552Z,69.74
2018-12-02T20:21:01.617Z,69.92
2018-12-02T20:23:30.681Z,69.82
2018-12-02T20:25:59.773Z,69.79
2018-12-02T20:28:30.804Z,70.02
2018-12-02T20:30:59.878Z,70.16
2018-12-02T20:33:28.957Z,70.83
2018-12-02T20:35:58.036Z,71.05
2018-12-02T20:38:27.098Z,71.37
2018-12-02T20:40:56.243Z,71.50
2018-12-02T20:43:25.295Z,71.27
2018-12-02T20:45:54.361Z,71.04
2018-12-02T20:48:23.692Z,71.76
2018-12-02T20:51:10.066Z,71.96
2018-12-02T20:53:39.147Z,71.82
2018-12-02T20:56:08.216Z,72.11
2018-12-02T20:58:37.293Z,72.16
2018-12-02T21:01:06.472Z,72.67
2018-12-02T21:03:35.507Z,73.32
2018-12-02T21:06:04.637Z,73.24
2018-12-02T21:08:33.726Z,73.78
2018-12-02T21:11:02.812Z,73.86
2018-12-02T21:13:31.900Z,73.99
2018-12-02T21:16:00.995Z,74.34
2018-12-02T21:18:30.092Z,74.69
2018-12-02T21:20:59.169Z,75.28
2018-12-02T21:23:28.262Z,74.98
2018-12-02T21:25:57.321Z,75.13
2018-12-02T21:28:26.386Z,76.04
2018-12-02T21:30:55.469Z,75.78
2018-12-02T21:33:24.530Z,75.73
2018-12-02T21:35:53.580Z,75.49
2018-12-02T21:38:22.696Z,75.99
2018-12-02T21:40:51.878Z,75.44
2018-12-02T21:43:20.934Z,75.17
2018-12-02T21:45:50.109Z,75.75
2018-12-02T21:48:19.167Z,76.26
2018-12-02T21:50:48.231Z,76.22
2018-12-02T21:53:17.317Z,75.63
2018-12-02T21:55:46.407Z,75.15
2018-12-02T21:58:15.451Z,74.82
2018-12-02T22:00:44.607Z,75.62
2018-12-02T22:03:13.651Z,75.53
2018-12-02T22:05:42.696Z,75.58
2018-12-02T22:08:11.789Z,75.85
2018-12-02T22:10:40.855Z,76.23
2018-12-02T22:13:09.905Z,76.19
2018-12-02T22:15:38.986Z,76.17
2018-12-02T22:18:08.042Z,75.87
2018-12-02T22:20:37.103Z,75.95
2018-12-02T22:23:06.204Z,75.84
2018-12-02T22:25:35.245Z,76.20
2018-12-02T22:28:04.357Z,76.25
2018-12-02T22:30:33.488Z,76.30
2018-12-02T22:33:02.535Z,76.66
2018-12-02T22:35:31.605Z,76.23
2018-12-02T22:38:00.673Z,76.24
2018-12-02T22:40:29.734Z,76.66
2018-12-02T22:42:58.789Z,76.68
2018-12-02T22:45:27.891Z,76.67
2018-12-02T22:47:56.947Z,76.82
2018-12-02T22:50:26.013Z,76.44
2018-12-02T22:52:55.103Z,76.34
2018-12-02T22:55:24.168Z,76.26
2018-12-02T22:57:53.231Z,76.05
2018-12-02T23:00:22.393Z,76.32
2018-12-02T23:02:51.489Z,76.81
2018-12-02T23:05:20.538Z,76.61
2018-12-02T23:07:49.618Z,76.61
2018-12-02T23:10:18.677Z,76.43
2018-12-02T23:12:47.736Z,75.98
2018-12-02T23:15:16.829Z,76.15
2018-12-02T23:17:45.891Z,76.34
2018-12-02T23:20:14.948Z,76.05
2018-12-02T23:22:44.041Z,75.73
2018-12-02T23:25:13.115Z,76.13
2018-12-02T23:27:42.162Z,76.11
2018-12-02T23:30:11.245Z,76.33
2018-12-02T23:32:40.322Z,75.99
2018-12-02T23:35:09.370Z,75.85
2018-12-02T23:37:38.454Z,76.02
2018-12-02T23:40:07.506Z,75.76
2018-12-02T23:42:36.565Z,75.97
2018-12-02T23:45:05.735Z,75.59
2018-12-02T23:47:34.778Z,75.48
2018-12-02T23:50:03.831Z,76.05
2018-12-02T23:52:43.383Z,75.84
2018-12-02T23:55:12.440Z,75.59
2018-12-02T23:57:41.502Z,75.52
